Time;durP1;ratioP1;P1;durP2;ratioP2;P2;SDS_P1;SDS_P2;PMS_P1;PMS_P2;Temp;Humidity;BMP_temperature;BMP_pressure;BME280_temperature;BME280_humidity;BME280_pressure;Samples;Min_cycle;Max_cycle;Signal;HPM_P1;HPM_P2
2023/05/06 00:02:08;;;;;;;;;3.00;3.00;;;;;19.20;48.94;99240.56;5089933;27;45400;-64
2023/05/06 00:04:33;;;;;;;;;3.75;3.75;;;;;19.18;48.54;99240.69;5075174;28;45587;-64
2023/05/06 00:06:58;;;;;;;;;4.75;3.00;;;;;19.16;49.05;99242.59;5074854;28;45455;-64
2023/05/06 00:09:24;;;;;;;;;5.00;3.25;;;;;19.11;49.24;99237.59;5074771;28;46173;-64
2023/05/06 00:11:50;;;;;;;;;3.50;3.50;;;;;19.09;49.04;99241.38;5084977;27;45313;-64
2023/05/06 00:14:16;;;;;;;;;3.75;3.75;;;;;19.04;48.70;99241.69;5095663;27;45402;-64
2023/05/06 00:16:41;;;;;;;;;4.00;3.00;;;;;19.01;49.44;99238.38;5081004;27;45407;-64
2023/05/06 00:19:07;;;;;;;;;4.25;4.25;;;;;18.97;49.76;99245.75;5075357;28;46068;-64
2023/05/06 00:21:32;;;;;;;;;3.00;3.00;;;;;18.91;49.31;99243.56;5075161;28;45373;-64
2023/05/06 00:23:58;;;;;;;;;3.00;3.00;;;;;18.85;49.76;99240.47;5082400;27;45462;-64
2023/05/06 00:26:23;;;;;;;;;4.00;4.00;;;;;18.77;50.18;99236.50;5094472;27;45621;-64
2023/05/06 00:28:48;;;;;;;;;2.75;2.75;;;;;18.72;50.29;99246.69;5074883;28;45479;-64
2023/05/06 00:31:14;;;;;;;;;3.75;3.75;;;;;18.68;49.85;99241.66;5056871;28;45520;-64
2023/05/06 00:33:40;;;;;;;;;4.25;3.50;;;;;18.63;50.07;99244.66;5075090;28;45836;-64
2023/05/06 00:36:05;;;;;;;;;0.00;0.00;;;;;18.61;50.49;99245.72;5074434;28;45537;-64
2023/05/06 00:38:31;;;;;;;;;4.00;4.00;;;;;18.55;51.34;99243.47;5074029;28;46627;-64
2023/05/06 00:40:56;;;;;;;;;4.50;3.00;;;;;18.51;51.25;99248.19;5076450;27;45419;-64
2023/05/06 00:43:22;;;;;;;;;4.00;4.00;;;;;18.45;50.85;99245.94;5074446;27;45753;-64
2023/05/06 00:45:47;;;;;;;;;3.25;3.25;;;;;18.41;51.02;99244.47;5074493;28;45409;-64
2023/05/06 00:48:15;;;;;;;;;4.00;4.00;;;;;18.39;51.69;99241.03;5074421;27;46074;-64
2023/05/06 00:50:40;;;;;;;;;3.20;3.20;;;;;18.36;51.32;99235.91;5074380;28;45385;-63
2023/05/06 00:53:09;;;;;;;;;3.00;3.00;;;;;18.34;51.58;99240.50;5074112;27;45366;-64
2023/05/06 00:55:35;;;;;;;;;3.25;3.25;;;;;18.31;51.22;99235.38;5069589;27;45461;-64
2023/05/06 00:58:01;;;;;;;;;3.25;2.00;;;;;18.28;50.96;99241.75;5088445;27;46247;-63
2023/05/06 01:00:27;;;;;;;;;4.00;4.00;;;;;18.26;51.73;99234.84;5081715;27;45377;-64
2023/05/06 01:02:52;;;;;;;;;6.25;6.25;;;;;18.24;51.36;99234.97;5095012;27;45510;-64
2023/05/06 01:05:21;;;;;;;;;8.25;5.25;;;;;18.26;52.12;99225.03;5095222;27;45359;-64
2023/05/06 01:07:55;;;;;;;;;3.25;3.25;;;;;18.28;51.77;99224.91;5094161;27;45493;-64
2023/05/06 01:10:43;;;;;;;;;4.40;3.20;;;;;18.28;51.94;99217.75;5094916;27;45428;-64
2023/05/06 01:13:17;;;;;;;;;7.00;5.75;;;;;18.29;51.78;99221.28;5074073;28;45409;-64
2023/05/06 01:15:49;;;;;;;;;8.00;6.00;;;;;18.28;51.66;99223.09;5055995;28;45588;-64
2023/05/06 01:18:21;;;;;;;;;6.75;6.00;;;;;18.29;51.93;99227.47;5074135;27;45360;-64
2023/05/06 01:20:48;;;;;;;;;7.00;7.00;;;;;18.28;51.93;99230.25;5074070;28;45321;-64
2023/05/06 01:23:14;;;;;;;;;5.50;4.50;;;;;18.25;52.33;99233.16;5073812;27;45385;-64
2023/05/06 01:25:40;;;;;;;;;9.00;7.00;;;;;18.22;52.37;99223.53;5074292;27;45696;-64
2023/05/06 01:28:09;;;;;;;;;7.00;7.00;;;;;18.20;52.26;99233.47;5077270;27;46296;-64
2023/05/06 01:31:10;;;;;;;;;7.25;6.00;;;;;18.18;52.32;99232.69;5055944;28;45477;-64
2023/05/06 01:33:57;;;;;;;;;9.25;8.25;;;;;18.14;53.22;99233.88;5074375;28;45468;-64
2023/05/06 01:36:44;;;;;;;;;8.00;8.00;;;;;18.07;52.79;99233.47;5073703;28;45451;-64
2023/05/06 01:39:19;;;;;;;;;7.50;6.25;;;;;17.98;53.60;99236.75;5068635;27;47631;-64
2023/05/06 01:41:48;;;;;;;;;7.40;5.00;;;;;17.93;53.25;99240.72;5074174;27;45508;-64
2023/05/06 01:44:16;;;;;;;;;7.25;5.75;;;;;17.85;53.99;99238.53;5074065;28;45347;-63
2023/05/06 01:46:44;;;;;;;;;7.25;7.00;;;;;17.78;54.37;99237.25;5078046;27;45401;-64
2023/05/06 01:49:10;;;;;;;;;6.00;5.50;;;;;17.74;53.79;99235.75;5086644;27;45433;-64
2023/05/06 01:51:36;;;;;;;;;6.40;5.60;;;;;17.68;53.73;99237.03;5073231;28;45382;-64
2023/05/06 01:54:02;;;;;;;;;7.00;6.25;;;;;17.61;53.98;99238.34;5055663;28;45377;-64
2023/05/06 01:56:31;;;;;;;;;7.75;5.75;;;;;17.55;54.84;99238.78;5091349;27;45323;-64
2023/05/06 01:58:57;;;;;;;;;5.75;5.75;;;;;17.49;55.02;99235.66;5084730;27;45723;-64
2023/05/06 02:01:22;;;;;;;;;6.00;6.00;;;;;17.40;55.30;99242.47;5082750;27;45869;-64
2023/05/06 02:03:48;;;;;;;;;6.00;5.50;;;;;17.35;55.66;99241.91;5094284;27;45469;-64
2023/05/06 02:06:13;;;;;;;;;7.00;6.25;;;;;17.30;55.53;99239.53;5094283;27;45490;-64
2023/05/06 02:08:42;;;;;;;;;6.25;6.25;;;;;17.24;56.06;99233.75;5093477;27;46572;-64
2023/05/06 02:11:08;;;;;;;;;5.20;5.00;;;;;17.17;55.81;99243.09;5072381;28;45464;-63
2023/05/06 02:13:33;;;;;;;;;9.75;7.25;;;;;17.09;56.00;99241.78;5092805;27;45496;-63
2023/05/06 02:15:58;;;;;;;;;6.00;6.00;;;;;17.06;56.40;99244.66;5097631;27;45425;-64
2023/05/06 02:18:24;;;;;;;;;6.00;6.00;;;;;17.01;56.97;99248.56;5090931;27;45433;-64
2023/05/06 02:20:50;;;;;;;;;7.00;7.00;;;;;16.95;56.39;99236.47;5088730;27;45515;-63
2023/05/06 02:23:15;;;;;;;;;6.00;5.00;;;;;16.90;56.04;99235.09;5076822;27;45321;-64
2023/05/06 02:25:41;;;;;;;;;6.00;6.00;;;;;16.84;56.56;99231.00;5077078;27;45443;-63
2023/05/06 02:28:07;;;;;;;;;7.00;6.00;;;;;16.82;57.26;99232.03;5083369;27;45418;-63
2023/05/06 02:30:33;;;;;;;;;6.25;5.75;;;;;16.79;57.71;99229.56;5097091;27;45340;-63
2023/05/06 02:32:58;;;;;;;;;7.00;6.75;;;;;16.79;57.78;99234.91;5081356;27;45458;-64
2023/05/06 02:35:24;;;;;;;;;5.50;5.50;;;;;16.78;57.58;99233.19;5076729;28;45497;-64
2023/05/06 02:37:49;;;;;;;;;8.50;7.75;;;;;16.77;57.34;99224.34;5076421;28;45349;-64
2023/05/06 02:40:15;;;;;;;;;6.00;6.00;;;;;16.74;57.81;99228.09;5077169;28;45453;-64
2023/05/06 02:42:40;;;;;;;;;8.25;5.25;;;;;16.72;58.31;99222.00;5081338;27;45464;-64
2023/05/06 02:45:06;;;;;;;;;6.75;6.75;;;;;16.70;57.74;99215.06;5087471;27;45482;-63
2023/05/06 02:47:31;;;;;;;;;6.00;6.00;;;;;16.71;58.13;99224.75;5076096;28;46798;-64
2023/05/06 02:49:57;;;;;;;;;6.75;6.75;;;;;16.70;58.19;99220.38;5076240;28;45353;-64
2023/05/06 02:52:22;;;;;;;;;7.75;6.50;;;;;16.72;57.76;99215.81;5075862;28;45695;-63
2023/05/06 02:54:49;;;;;;;;;6.75;6.00;;;;;16.70;58.09;99215.91;5082828;27;45447;-63
2023/05/06 02:57:14;;;;;;;;;8.50;6.75;;;;;16.69;58.34;99216.00;5093939;27;46551;-64
2023/05/06 02:59:40;;;;;;;;;7.75;6.50;;;;;16.67;58.34;99215.25;5084860;27;45625;-64
2023/05/06 03:02:05;;;;;;;;;5.00;5.00;;;;;16.66;57.67;99211.72;5090157;27;45357;-64
2023/05/06 03:04:30;;;;;;;;;8.75;7.25;;;;;16.67;57.98;99208.13;5076350;28;45660;-63
2023/05/06 03:06:56;;;;;;;;;5.25;5.00;;;;;16.68;58.38;99209.81;5090612;27;45472;-64
2023/05/06 03:09:21;;;;;;;;;7.50;7.50;;;;;16.71;58.40;99214.09;5096722;27;45443;-64
2023/05/06 03:11:47;;;;;;;;;8.25;7.50;;;;;16.67;58.32;99216.09;5095443;27;45386;-64
2023/05/06 03:14:12;;;;;;;;;7.50;7.00;;;;;16.63;58.71;99211.06;5076544;28;45455;-63
2023/05/06 03:16:37;;;;;;;;;7.00;7.00;;;;;16.61;58.78;99210.25;5057645;28;46552;-64
2023/05/06 03:19:03;;;;;;;;;7.00;6.75;;;;;16.56;58.91;99210.56;5076340;27;45481;-63
2023/05/06 03:21:29;;;;;;;;;5.25;5.25;;;;;16.56;58.58;99213.25;5075807;27;45392;-63
2023/05/06 03:23:54;;;;;;;;;6.25;6.25;;;;;16.58;58.84;99206.00;5081565;27;45546;-63
2023/05/06 03:26:20;;;;;;;;;3.50;3.50;;;;;16.61;59.01;99205.78;5087576;27;45458;-63
2023/05/06 03:28:45;;;;;;;;;10.00;8.00;;;;;16.64;59.35;99210.09;5076332;28;45431;-64
2023/05/06 03:31:11;;;;;;;;;4.00;4.00;;;;;16.63;58.99;99209.25;5076100;28;45441;-63
2023/05/06 03:33:37;;;;;;;;;7.75;7.00;;;;;16.62;59.07;99209.31;5057578;28;45373;-63
2023/05/06 03:36:02;;;;;;;;;8.75;6.75;;;;;16.62;59.40;99209.31;5075263;28;45948;-63
2023/05/06 03:38:28;;;;;;;;;7.00;7.00;;;;;16.62;59.15;99206.66;5075254;28;45382;-63
2023/05/06 03:40:53;;;;;;;;;8.50;8.50;;;;;16.61;59.37;99203.13;5077071;27;45540;-63
2023/05/06 03:43:19;;;;;;;;;8.25;7.00;;;;;16.59;58.91;99207.69;5088115;27;45467;-63
2023/05/06 03:45:44;;;;;;;;;6.25;6.25;;;;;16.56;58.97;99204.41;5075242;28;46278;-63
2023/05/06 03:48:10;;;;;;;;;6.00;6.00;;;;;16.55;59.10;99205.34;5075465;28;45416;-63
2023/05/06 03:50:36;;;;;;;;;6.75;6.75;;;;;16.54;59.01;99208.97;5074962;27;45385;-64
2023/05/06 03:53:01;;;;;;;;;7.00;6.75;;;;;16.53;59.21;99196.59;5089190;27;45428;-64
2023/05/06 03:55:27;;;;;;;;;7.00;7.00;;;;;16.52;59.45;99200.22;5069229;27;45728;-64
2023/05/06 03:57:52;;;;;;;;;3.25;2.00;;;;;16.51;59.08;99203.81;5090565;27;45455;-63
2023/05/06 04:00:18;;;;;;;;;7.25;7.25;;;;;16.50;59.35;99213.63;5083730;27;45472;-63
2023/05/06 04:02:43;;;;;;;;;8.75;7.50;;;;;16.50;59.15;99202.97;5095360;27;45539;-64
2023/05/06 04:05:08;;;;;;;;;5.50;5.50;;;;;16.49;59.41;99197.75;5096103;27;45931;-63
2023/05/06 04:07:34;;;;;;;;;7.75;7.25;;;;;16.48;59.28;99193.38;5095724;27;45382;-63
2023/05/06 04:09:59;;;;;;;;;8.25;8.00;;;;;16.47;59.13;99194.31;5096197;27;45461;-63
2023/05/06 04:12:26;;;;;;;;;10.00;6.75;;;;;16.46;59.21;99189.94;5076818;27;45579;-63
2023/05/06 04:14:51;;;;;;;;;5.75;5.75;;;;;16.46;59.50;99189.94;5082563;27;46209;-63
2023/05/06 04:17:17;;;;;;;;;8.50;7.00;;;;;16.45;59.29;99196.22;5075450;28;45374;-64
2023/05/06 04:19:42;;;;;;;;;6.00;6.00;;;;;16.44;59.51;99191.84;5057078;28;45378;-64
2023/05/06 04:22:08;;;;;;;;;6.75;6.75;;;;;16.45;59.58;99197.06;5074765;27;45539;-64
2023/05/06 04:24:33;;;;;;;;;7.00;7.00;;;;;16.46;59.27;99203.25;5075106;28;46336;-63
2023/05/06 04:26:59;;;;;;;;;9.75;7.75;;;;;16.41;59.15;99198.25;5078825;27;45499;-64
2023/05/06 04:29:25;;;;;;;;;7.00;6.00;;;;;16.40;59.16;99204.50;5075628;28;45524;-63
2023/05/06 04:31:52;;;;;;;;;8.75;7.75;;;;;16.40;59.30;99207.16;5074789;28;45372;-63
2023/05/06 04:34:18;;;;;;;;;7.75;7.75;;;;;16.41;59.08;99211.53;5074406;28;46345;-64
2023/05/06 04:36:44;;;;;;;;;7.00;7.00;;;;;16.40;59.22;99205.38;5074679;28;45843;-64
2023/05/06 04:39:09;;;;;;;;;7.25;7.00;;;;;16.38;59.11;99207.25;5075113;28;45401;-64
2023/05/06 04:41:35;;;;;;;;;7.00;7.00;;;;;16.37;59.25;99208.22;5075003;27;45585;-63
2023/05/06 04:44:02;;;;;;;;;3.50;3.50;;;;;16.37;59.26;99207.34;5073967;28;46314;-64
2023/05/06 04:46:28;;;;;;;;;7.25;6.25;;;;;16.37;59.31;99208.22;5074417;28;45387;-64
2023/05/06 04:48:53;;;;;;;;;8.00;8.00;;;;;16.36;59.58;99209.16;5074206;28;45408;-64
2023/05/06 04:51:19;;;;;;;;;6.00;6.00;;;;;16.33;59.50;99214.66;5074064;28;45325;-64
2023/05/06 04:53:45;;;;;;;;;11.75;7.75;;;;;16.31;59.57;99215.72;5073893;28;45415;-64
2023/05/06 04:56:11;;;;;;;;;5.80;5.80;;;;;16.30;59.55;99216.66;5089810;27;45494;-63
2023/05/06 04:58:36;;;;;;;;;7.50;6.00;;;;;16.31;59.76;99221.03;5094731;27;45507;-64
2023/05/06 05:01:07;;;;;;;;;5.00;5.00;;;;;16.30;59.52;99211.34;5094558;27;45528;-64
2023/05/06 05:03:33;;;;;;;;;10.50;9.25;;;;;16.32;59.87;99222.75;5080984;27;45431;-63
2023/05/06 05:05:58;;;;;;;;;8.50;6.50;;;;;16.33;59.59;99224.44;5074678;28;45365;-64
2023/05/06 05:08:24;;;;;;;;;8.00;6.50;;;;;16.33;59.49;99230.63;5074250;28;46169;-66
2023/05/06 05:10:49;;;;;;;;;9.00;8.50;;;;;16.35;60.04;99230.53;5076079;27;45389;-63
2023/05/06 05:13:14;;;;;;;;;7.50;6.75;;;;;16.35;60.27;99234.06;5080713;27;46347;-64
2023/05/06 05:15:40;;;;;;;;;6.75;6.75;;;;;16.35;60.39;99231.41;5055572;28;45799;-63
2023/05/06 05:18:05;;;;;;;;;6.50;6.50;;;;;16.36;60.10;99234.91;5074536;28;45310;-63
2023/05/06 05:20:31;;;;;;;;;8.50;8.50;;;;;16.37;59.97;99240.13;5074814;27;45318;-64
2023/05/06 05:22:56;;;;;;;;;7.50;7.50;;;;;16.42;60.05;99239.00;5073809;28;45447;-64
2023/05/06 05:25:22;;;;;;;;;9.25;8.50;;;;;16.44;59.77;99237.94;5073549;28;45473;-64
2023/05/06 05:27:47;;;;;;;;;8.75;8.75;;;;;16.49;59.85;99241.19;5077725;27;45542;-63
2023/05/06 05:30:13;;;;;;;;;8.75;8.25;;;;;16.53;59.57;99241.84;5074301;28;45404;-64
2023/05/06 05:32:38;;;;;;;;;7.00;7.00;;;;;16.55;59.19;99238.13;5073645;28;46269;-63
2023/05/06 05:35:04;;;;;;;;;3.00;2.50;;;;;16.61;59.23;99237.75;5073963;28;45326;-64
2023/05/06 05:37:30;;;;;;;;;11.00;8.75;;;;;16.66;59.32;99235.69;5073890;27;45379;-64
2023/05/06 05:39:55;;;;;;;;;7.25;7.25;;;;;16.71;58.93;99240.72;5074154;28;45464;-64
2023/05/06 05:42:21;;;;;;;;;7.00;7.00;;;;;16.73;58.91;99238.81;5074094;27;46177;-63
2023/05/06 05:44:46;;;;;;;;;9.00;8.50;;;;;16.76;58.99;99237.78;5073945;28;45411;-64
2023/05/06 05:47:12;;;;;;;;;11.50;8.00;;;;;16.78;59.25;99239.38;5073013;28;45935;-63
2023/05/06 05:49:37;;;;;;;;;7.00;7.00;;;;;16.85;59.13;99234.53;5073935;28;45361;-64
2023/05/06 05:52:03;;;;;;;;;9.50;8.00;;;;;16.90;59.39;99235.94;5073596;28;45343;-63
2023/05/06 05:54:28;;;;;;;;;9.00;8.50;;;;;16.97;58.93;99237.25;5077272;27;45432;-64
2023/05/06 05:56:53;;;;;;;;;8.00;8.00;;;;;17.02;58.85;99229.81;5091796;27;45316;-63
2023/05/06 05:59:19;;;;;;;;;10.00;8.50;;;;;17.07;58.79;99230.38;5081508;27;45583;-63
2023/05/06 06:01:44;;;;;;;;;11.50;8.25;;;;;17.12;58.90;99229.22;5084881;27;45340;-64
2023/05/06 06:04:10;;;;;;;;;10.25;10.25;;;;;17.16;59.11;99217.41;5083385;27;45498;-64
2023/05/06 06:06:35;;;;;;;;;12.00;11.25;;;;;17.20;59.22;99222.44;5073480;28;45464;-64
2023/05/06 06:09:00;;;;;;;;;11.50;10.25;;;;;17.26;59.29;99223.88;5073396;28;45347;-64
2023/05/06 06:11:27;;;;;;;;;7.75;7.75;;;;;17.32;59.08;99224.28;5079739;27;45595;-64
2023/05/06 06:13:52;;;;;;;;;9.60;8.80;;;;;17.36;58.72;99225.81;5075326;27;45505;-64
2023/05/06 06:16:18;;;;;;;;;10.50;8.25;;;;;17.42;58.77;99209.41;5073630;28;45434;-63
2023/05/06 06:18:43;;;;;;;;;7.25;7.25;;;;;17.49;58.82;99215.19;5078701;27;45422;-64
2023/05/06 06:21:09;;;;;;;;;6.25;6.25;;;;;17.54;58.78;99212.22;5083020;27;45922;-64
2023/05/06 06:23:34;;;;;;;;;11.25;10.50;;;;;17.56;58.52;99211.16;5074533;27;46240;-64
2023/05/06 06:26:01;;;;;;;;;3.25;2.00;;;;;17.62;58.52;99208.06;5093769;27;45535;-64
2023/05/06 06:28:27;;;;;;;;;10.00;9.50;;;;;17.70;58.80;99204.91;5093653;27;45533;-64
2023/05/06 06:30:52;;;;;;;;;9.25;8.25;;;;;17.78;58.41;99203.41;5094020;27;47244;-63
2023/05/06 06:33:18;;;;;;;;;13.50;9.00;;;;;17.86;58.10;99202.06;5093667;27;45391;-65
2023/05/06 06:35:43;;;;;;;;;8.50;7.00;;;;;17.92;57.54;99194.50;5075593;27;45545;-64
2023/05/06 06:38:09;;;;;;;;;8.50;8.25;;;;;17.97;57.39;99195.00;5093579;27;45310;-63
2023/05/06 06:40:34;;;;;;;;;7.50;7.50;;;;;18.04;57.30;99195.47;5093622;27;46678;-64
2023/05/06 06:43:00;;;;;;;;;10.50;9.00;;;;;18.08;57.55;99183.63;5075434;27;45413;-64
2023/05/06 06:45:25;;;;;;;;;8.50;6.50;;;;;18.12;57.57;99191.28;5055181;28;45456;-64
2023/05/06 06:47:50;;;;;;;;;6.25;6.25;;;;;18.19;57.50;99188.19;5054350;28;45339;-64
2023/05/06 06:50:17;;;;;;;;;8.25;6.50;;;;;18.25;57.93;99196.63;5073380;28;46291;-64
2023/05/06 06:52:42;;;;;;;;;9.20;7.60;;;;;18.31;57.93;99188.19;5076480;27;45479;-64
2023/05/06 06:55:08;;;;;;;;;9.50;9.00;;;;;18.38;57.70;99193.94;5093544;27;45422;-64
2023/05/06 06:57:33;;;;;;;;;8.75;8.75;;;;;18.43;57.21;99184.63;5080582;27;45482;-64
2023/05/06 06:59:59;;;;;;;;;13.25;10.50;;;;;18.49;57.25;99191.34;5085447;27;45521;-64
2023/05/06 07:02:24;;;;;;;;;9.25;8.75;;;;;18.52;57.39;99183.13;5089789;27;45430;-64
2023/05/06 07:04:50;;;;;;;;;11.50;9.25;;;;;18.58;57.57;99187.19;5075453;28;45498;-63
2023/05/06 07:07:15;;;;;;;;;24.75;21.50;;;;;18.63;57.11;99185.91;5075239;28;45490;-64
2023/05/06 07:09:41;;;;;;;;;11.00;10.00;;;;;18.69;57.37;99184.63;5075873;28;45999;-63
2023/05/06 07:12:06;;;;;;;;;9.00;9.00;;;;;18.74;57.33;99175.31;5085212;27;45505;-64
2023/05/06 07:14:32;;;;;;;;;10.00;10.00;;;;;18.77;56.75;99174.22;5057063;28;45404;-64
2023/05/06 07:16:59;;;;;;;;;7.25;6.25;;;;;18.82;56.98;99177.41;5075409;28;45275;-64
2023/05/06 07:19:28;;;;;;;;;8.00;8.00;;;;;18.89;56.21;99181.38;5082213;27;46289;-64
2023/05/06 07:21:54;;;;;;;;;6.40;6.40;;;;;18.94;56.38;99179.19;5078249;27;45437;-64
2023/05/06 07:24:19;;;;;;;;;7.75;7.00;;;;;19.02;56.70;99182.16;5075503;27;45457;-64
2023/05/06 07:26:45;;;;;;;;;7.00;7.00;;;;;19.11;56.11;99181.47;5054316;28;45518;-64
2023/05/06 07:29:11;;;;;;;;;12.50;9.00;;;;;19.16;56.26;99182.00;5033411;28;47244;-63
2023/05/06 07:31:36;;;;;;;;;11.00;9.00;;;;;19.18;55.77;99172.03;5034717;28;45365;-64
2023/05/06 07:34:02;;;;;;;;;7.00;6.75;;;;;19.26;55.53;99181.31;5047157;28;45592;-64
2023/05/06 07:36:27;;;;;;;;;8.50;8.50;;;;;19.34;55.28;99181.59;5037465;28;45448;-64
2023/05/06 07:38:53;;;;;;;;;9.00;8.00;;;;;19.42;55.82;99180.06;5034830;28;45562;-64
2023/05/06 07:41:18;;;;;;;;;7.75;7.75;;;;;19.48;54.86;99184.06;5036625;28;45317;-64
2023/05/06 07:43:44;;;;;;;;;10.00;8.50;;;;;19.52;55.27;99180.25;5034684;28;45435;-64
2023/05/06 07:46:09;;;;;;;;;7.50;7.50;;;;;19.58;54.63;99177.09;5035002;28;45373;-64
2023/05/06 07:48:35;;;;;;;;;8.50;8.00;;;;;19.64;54.82;99175.75;5034401;28;46101;-64
2023/05/06 07:51:01;;;;;;;;;7.00;7.00;;;;;19.70;54.69;99176.16;5037246;28;45405;-64
2023/05/06 07:53:27;;;;;;;;;6.25;5.75;;;;;19.77;54.39;99173.88;5053492;28;45405;-64
2023/05/06 07:55:55;;;;;;;;;6.50;6.50;;;;;19.81;53.88;99162.81;5050641;28;45392;-64
2023/05/06 07:58:21;;;;;;;;;8.50;8.50;;;;;19.87;53.61;99164.16;5054793;28;45399;-64
2023/05/06 08:00:46;;;;;;;;;7.25;6.00;;;;;19.91;53.73;99165.63;5053109;28;45479;-64
2023/05/06 08:03:12;;;;;;;;;9.00;9.00;;;;;19.98;54.04;99164.16;5054916;28;45294;-64
2023/05/06 08:05:37;;;;;;;;;9.25;8.50;;;;;20.06;54.12;99158.22;5054672;28;45472;-64
2023/05/06 08:08:03;;;;;;;;;8.50;7.00;;;;;20.13;53.94;99151.41;5044247;28;45425;-64
2023/05/06 08:10:28;;;;;;;;;11.00;9.25;;;;;20.19;53.63;99153.59;5049890;28;45329;-64
2023/05/06 08:12:54;;;;;;;;;6.50;6.50;;;;;20.27;53.51;99148.50;5044324;28;45377;-64
2023/05/06 08:15:19;;;;;;;;;10.00;7.00;;;;;20.35;53.52;99150.56;5033980;28;45493;-64
2023/05/06 08:17:45;;;;;;;;;9.25;9.25;;;;;20.43;53.81;99153.53;5034227;28;45390;-64
2023/05/06 08:20:12;;;;;;;;;9.50;9.00;;;;;20.52;53.15;99148.28;5040569;28;45523;-64
2023/05/06 08:22:38;;;;;;;;;9.75;8.50;;;;;20.62;53.11;99142.16;5039003;28;45371;-64
2023/05/06 08:25:04;;;;;;;;;6.50;6.50;;;;;20.69;52.93;99143.38;5036812;28;45515;-64
2023/05/06 08:27:29;;;;;;;;;7.25;6.75;;;;;20.75;52.63;99134.84;5076754;27;46358;-64
2023/05/06 08:29:54;;;;;;;;;6.75;6.00;;;;;20.81;52.26;99129.81;5074558;28;45317;-65
2023/05/06 08:32:20;;;;;;;;;6.25;6.25;;;;;20.88;52.46;99127.50;5082967;27;45783;-64
2023/05/06 08:34:45;;;;;;;;;9.00;9.00;;;;;20.94;52.14;99132.38;5083855;27;45699;-64
2023/05/06 08:37:11;;;;;;;;;7.75;5.75;;;;;21.00;52.03;99129.16;5073521;27;45973;-65
2023/05/06 08:39:36;;;;;;;;;7.25;6.50;;;;;21.08;51.75;99129.41;5081471;27;45409;-64
2023/05/06 08:42:04;;;;;;;;;7.00;7.00;;;;;21.14;50.89;99120.81;5061333;28;45456;-64
2023/05/06 08:44:29;;;;;;;;;5.00;5.00;;;;;21.17;50.82;99123.25;5068940;27;45468;-65
2023/05/06 08:46:55;;;;;;;;;10.00;7.00;;;;;21.21;50.88;99122.06;5077386;27;46485;-64
2023/05/06 08:49:20;;;;;;;;;7.25;7.00;;;;;21.28;50.63;99121.56;5082879;27;45448;-63
2023/05/06 08:51:50;;;;;;;;;6.50;6.50;;;;;21.33;50.95;99120.16;5087808;27;45444;-64
2023/05/06 08:54:16;;;;;;;;;9.50;8.50;;;;;21.39;50.50;99119.66;5082931;27;45454;-65
2023/05/06 08:56:51;;;;;;;;;9.00;7.00;;;;;21.44;50.92;99130.00;5087590;27;47743;-65
2023/05/06 08:59:22;;;;;;;;;8.80;7.00;;;;;21.46;49.95;99112.78;5087715;27;45465;-67
2023/05/06 09:01:47;;;;;;;;;8.75;7.50;;;;;21.53;50.04;99113.97;5086389;27;45428;-68
2023/05/06 09:04:15;;;;;;;;;6.25;6.00;;;;;21.60;49.77;99114.31;5094268;27;45494;-68
2023/05/06 09:06:40;;;;;;;;;5.80;5.80;;;;;21.62;48.90;99112.31;5093916;27;45422;-67
2023/05/06 09:09:06;;;;;;;;;6.00;6.00;;;;;21.68;48.92;99106.44;5094313;27;45411;-67
2023/05/06 09:11:31;;;;;;;;;6.75;6.75;;;;;21.74;49.07;99107.75;5094051;27;45419;-67
2023/05/06 09:14:15;;;;;;;;;4.00;3.00;;;;;21.81;48.81;99104.38;5075389;27;45326;-68
2023/05/06 09:16:43;;;;;;;;;5.60;5.40;;;;;21.88;48.61;99102.03;5073780;27;46303;-68
2023/05/06 09:19:08;;;;;;;;;7.00;7.00;;;;;21.94;48.31;99099.69;5074192;28;45380;-68
2023/05/06 09:21:35;;;;;;;;;8.50;7.00;;;;;21.98;48.61;99092.19;5073478;28;45361;-68
2023/05/06 09:24:02;;;;;;;;;8.50;6.75;;;;;22.02;48.04;99090.13;5073836;28;45388;-66
2023/05/06 09:26:29;;;;;;;;;5.80;5.40;;;;;22.03;48.05;99084.63;5078399;27;45436;-67
2023/05/06 09:28:56;;;;;;;;;7.00;7.00;;;;;22.08;47.53;99086.91;5055139;28;45417;-68
2023/05/06 09:31:22;;;;;;;;;5.50;5.50;;;;;22.12;47.38;99086.47;5073659;28;45477;-67
2023/05/06 09:33:48;;;;;;;;;9.00;6.00;;;;;22.14;47.39;99091.72;5073338;28;45438;-67
2023/05/06 09:36:14;;;;;;;;;7.00;7.00;;;;;22.16;47.84;99087.06;5072967;28;46541;-67
2023/05/06 09:38:40;;;;;;;;;8.50;7.00;;;;;22.20;48.26;99081.31;5073564;27;45403;-67
2023/05/06 09:41:06;;;;;;;;;7.25;7.25;;;;;22.22;47.84;99086.53;5057067;27;45460;-67
2023/05/06 09:43:32;;;;;;;;;6.50;6.00;;;;;22.21;47.30;99077.63;5073528;28;45369;-67
2023/05/06 09:46:00;;;;;;;;;8.25;6.00;;;;;22.21;47.08;99087.53;5073228;28;45960;-67
2023/05/06 09:48:30;;;;;;;;;6.60;5.20;;;;;22.23;47.25;99078.34;5072931;28;45407;-67
2023/05/06 09:50:56;;;;;;;;;8.00;7.00;;;;;22.20;47.23;99075.94;5073275;28;45385;-67
2023/05/06 09:53:22;;;;;;;;;7.00;7.00;;;;;22.20;47.21;99065.19;5073088;28;45349;-67
2023/05/06 09:55:49;;;;;;;;;10.80;8.60;;;;;22.19;47.23;99073.38;5085809;27;45703;-67
2023/05/06 09:58:15;;;;;;;;;7.80;7.00;;;;;22.14;48.09;99059.50;5088133;27;45367;-67
2023/05/06 10:00:42;;;;;;;;;10.00;10.00;;;;;22.11;47.66;99054.41;5079819;27;45529;-67
2023/05/06 10:03:08;;;;;;;;;7.25;7.25;;;;;22.07;47.83;99059.22;5093526;27;45462;-68
2023/05/06 10:05:35;;;;;;;;;8.00;6.50;;;;;22.08;47.79;99052.84;5088792;27;46243;-67
2023/05/06 10:08:03;;;;;;;;;7.00;7.00;;;;;22.10;47.86;99053.56;5084246;27;45427;-67
2023/05/06 10:10:28;;;;;;;;;6.25;6.25;;;;;22.13;48.21;99049.75;5090024;27;45411;-67
2023/05/06 10:12:55;;;;;;;;;9.75;8.75;;;;;22.19;47.80;99051.88;5093124;27;45349;-67
2023/05/06 10:15:21;;;;;;;;;5.50;5.50;;;;;22.25;47.62;99062.09;5087250;27;46060;-67
2023/05/06 10:17:51;;;;;;;;;8.40;7.00;;;;;22.30;46.66;99043.72;5082055;27;45559;-67
2023/05/06 10:20:20;;;;;;;;;5.20;5.00;;;;;22.31;46.33;99045.41;5054955;28;45413;-67
2023/05/06 10:23:20;;;;;;;;;7.00;7.00;;;;;22.32;46.82;99031.00;5062204;28;45476;-67
2023/05/06 10:25:50;;;;;;;;;6.00;5.20;;;;;22.38;46.19;99027.78;5073442;27;45313;-66
2023/05/06 10:28:19;;;;;;;;;4.00;4.00;;;;;22.43;46.41;99022.00;5074867;27;45519;-67
2023/05/06 10:30:46;;;;;;;;;5.40;5.40;;;;;22.47;45.01;99012.66;5093550;27;45315;-67
2023/05/06 10:33:14;;;;;;;;;5.50;5.50;;;;;22.53;45.51;99014.78;5095204;27;45554;-67
2023/05/06 10:35:43;;;;;;;;;7.60;5.80;;;;;22.60;45.36;99008.72;5078215;27;46063;-67
2023/05/06 10:38:26;;;;;;;;;7.20;5.20;;;;;22.67;45.13;99003.63;5095999;27;45284;-66
2023/05/06 10:40:53;;;;;;;;;5.00;5.00;;;;;22.74;45.06;98998.53;5096543;27;45435;-67
2023/05/06 10:43:26;;;;;;;;;6.00;4.75;;;;;22.81;45.34;99010.44;5096433;27;45508;-67
2023/05/06 10:46:02;;;;;;;;;5.80;5.00;;;;;22.88;45.52;98999.00;5077915;27;46593;-67
2023/05/06 10:48:29;;;;;;;;;5.00;5.00;;;;;22.95;45.35;98993.91;5096257;27;45450;-67
2023/05/06 10:51:23;;;;;;;;;5.80;5.80;;;;;23.02;45.31;98986.94;5096617;27;45422;-62
2023/05/06 10:54:05;;;;;;;;;7.50;6.50;;;;;23.13;45.27;98978.72;5095906;27;45397;-64
2023/05/06 10:56:39;;;;;;;;;8.00;7.00;;;;;23.27;45.59;98977.44;5083338;27;45637;-65
2023/05/06 10:59:10;;;;;;;;;5.00;4.60;;;;;23.39;44.52;98978.97;5087830;27;45513;-71
2023/05/06 11:01:43;;;;;;;;;5.40;5.40;;;;;23.44;44.54;98970.44;5087538;27;45376;-71
2023/05/06 11:04:11;;;;;;;;;4.50;4.50;;;;;23.45;44.16;98972.16;5077973;27;45365;-68
2023/05/06 11:06:45;;;;;;;;;5.40;5.40;;;;;23.48;44.33;98964.59;5057633;28;48246;-68
2023/05/06 11:09:17;;;;;;;;;4.80;4.80;;;;;23.57;43.84;98963.78;5077033;27;45667;-68
2023/05/06 11:11:52;;;;;;;;;5.60;5.60;;;;;23.64;44.10;98955.94;5090876;27;45504;-69
2023/05/06 11:14:29;;;;;;;;;7.25;6.00;;;;;23.71;44.31;98948.97;5076061;28;45528;-63
2023/05/06 11:16:56;;;;;;;;;6.40;5.80;;;;;23.81;44.00;98952.47;5075601;28;45551;-63
2023/05/06 11:19:33;;;;;;;;;4.80;2.80;;;;;23.93;42.54;98945.91;5075944;28;45436;-64
2023/05/06 11:22:00;;;;;;;;;5.00;5.00;;;;;24.03;43.40;98940.44;5075337;28;45432;-64
2023/05/06 11:24:27;;;;;;;;;4.20;3.20;;;;;24.15;42.53;98938.38;5075114;28;45546;-64
2023/05/06 11:26:54;;;;;;;;;7.00;5.80;;;;;24.22;42.84;98928.69;5085047;27;46492;-64
2023/05/06 11:29:20;;;;;;;;;10.00;6.00;;;;;24.31;41.75;98930.50;5095258;27;45418;-64
2023/05/06 11:31:46;;;;;;;;;4.00;3.80;;;;;24.37;42.74;98915.56;5093778;27;45499;-64